sensor_id;sensor_type;location;lat;lon;timestamp;P1;durP1;ratioP1;P2;durP2;ratioP2
45382;SDS011;42455;51.660;5.824;2022-12-18T00:00:31;49.0;;;29.0;;
45382;SDS011;42455;51.660;5.824;2022-12-18T00:05:37;47.0;;;28.0;;
45382;SDS011;42455;51.660;5.824;2022-12-18T00:10:43;44.0;;;28.0;;
45382;SDS011;42455;51.660;5.824;2022-12-18T00:15:50;44.0;;;27.0;;
45382;SDS011;42455;51.660;5.824;2022-12-18T00:20:58;43.0;;;27.5;;
45382;SDS011;42455;51.660;5.824;2022-12-18T00:26:03;44.0;;;27.5;;
45382;SDS011;42455;51.660;5.824;2022-12-18T00:31:09;44.0;;;27.0;;
45382;SDS011;42455;51.660;5.824;2022-12-18T00:36:16;43.0;;;27.0;;
45382;SDS011;42455;51.660;5.824;2022-12-18T00:41:21;41.5;;;25.0;;
45382;SDS011;42455;51.660;5.824;2022-12-18T00:46:26;39.0;;;25.0;;
45382;SDS011;42455;51.660;5.824;2022-12-18T00:51:32;40.5;;;26.0;;
45382;SDS011;42455;51.660;5.824;2022-12-18T00:56:39;38.0;;;25.0;;
45382;SDS011;42455;51.660;5.824;2022-12-18T01:01:44;37.0;;;24.0;;
45382;SDS011;42455;51.660;5.824;2022-12-18T01:06:51;38.0;;;25.0;;
45382;SDS011;42455;51.660;5.824;2022-12-18T01:11:57;38.0;;;24.0;;
45382;SDS011;42455;51.660;5.824;2022-12-18T01:17:02;38.0;;;23.5;;
45382;SDS011;42455;51.660;5.824;2022-12-18T01:22:08;34.5;;;23.0;;
45382;SDS011;42455;51.660;5.824;2022-12-18T01:27:15;36.0;;;23.0;;
45382;SDS011;42455;51.660;5.824;2022-12-18T01:32:21;34.5;;;22.0;;
45382;SDS011;42455;51.660;5.824;2022-12-18T01:37:27;33.0;;;22.0;;
45382;SDS011;42455;51.660;5.824;2022-12-18T01:42:33;34.0;;;22.0;;
45382;SDS011;42455;51.660;5.824;2022-12-18T01:47:40;34.0;;;22.0;;
45382;SDS011;42455;51.660;5.824;2022-12-18T01:52:47;30.0;;;21.0;;
45382;SDS011;42455;51.660;5.824;2022-12-18T01:57:55;32.5;;;21.0;;
45382;SDS011;42455;51.660;5.824;2022-12-18T02:02:58;31.0;;;21.0;;
45382;SDS011;42455;51.660;5.824;2022-12-18T02:08:10;28.0;;;20.0;;
45382;SDS011;42455;51.660;5.824;2022-12-18T02:13:20;29.0;;;20.0;;
45382;SDS011;42455;51.660;5.824;2022-12-18T02:18:18;30.0;;;20.0;;
45382;SDS011;42455;51.660;5.824;2022-12-18T02:24:03;29.0;;;20.0;;
45382;SDS011;42455;51.660;5.824;2022-12-18T02:28:30;27.0;;;19.0;;
45382;SDS011;42455;51.660;5.824;2022-12-18T02:33:35;29.0;;;19.5;;
45382;SDS011;42455;51.660;5.824;2022-12-18T02:38:41;30.0;;;19.0;;
45382;SDS011;42455;51.660;5.824;2022-12-18T02:43:48;27.0;;;18.0;;
45382;SDS011;42455;51.660;5.824;2022-12-18T02:48:54;28.0;;;19.0;;
45382;SDS011;42455;51.660;5.824;2022-12-18T02:54:32;26.0;;;18.0;;
45382;SDS011;42455;51.660;5.824;2022-12-18T02:59:12;26.0;;;18.0;;
45382;SDS011;42455;51.660;5.824;2022-12-18T03:04:14;25.0;;;18.0;;
45382;SDS011;42455;51.660;5.824;2022-12-18T03:09:27;24.0;;;17.0;;
45382;SDS011;42455;51.660;5.824;2022-12-18T03:14:28;25.0;;;17.0;;
45382;SDS011;42455;51.660;5.824;2022-12-18T03:19:31;25.0;;;17.0;;
45382;SDS011;42455;51.660;5.824;2022-12-18T03:24:37;25.0;;;16.0;;
45382;SDS011;42455;51.660;5.824;2022-12-18T03:29:52;22.0;;;15.0;;
45382;SDS011;42455;51.660;5.824;2022-12-18T03:34:58;26.0;;;16.5;;
45382;SDS011;42455;51.660;5.824;2022-12-18T03:39:56;22.0;;;16.0;;
45382;SDS011;42455;51.660;5.824;2022-12-18T03:45:15;24.0;;;16.0;;
45382;SDS011;42455;51.660;5.824;2022-12-18T03:50:12;25.0;;;16.0;;
45382;SDS011;42455;51.660;5.824;2022-12-18T03:55:14;22.0;;;15.0;;
45382;SDS011;42455;51.660;5.824;2022-12-18T04:00:21;23.0;;;16.0;;
45382;SDS011;42455;51.660;5.824;2022-12-18T04:05:27;21.0;;;15.0;;
45382;SDS011;42455;51.660;5.824;2022-12-18T04:10:33;22.0;;;16.0;;
45382;SDS011;42455;51.660;5.824;2022-12-18T04:15:39;21.0;;;15.0;;
45382;SDS011;42455;51.660;5.824;2022-12-18T04:20:45;21.0;;;15.0;;
45382;SDS011;42455;51.660;5.824;2022-12-18T04:25:52;21.0;;;15.0;;
45382;SDS011;42455;51.660;5.824;2022-12-18T04:30:58;21.0;;;15.0;;
45382;SDS011;42455;51.660;5.824;2022-12-18T04:36:04;20.0;;;15.0;;
45382;SDS011;42455;51.660;5.824;2022-12-18T04:41:10;21.0;;;15.0;;
45382;SDS011;42455;51.660;5.824;2022-12-18T04:46:16;20.0;;;14.0;;
45382;SDS011;42455;51.660;5.824;2022-12-18T04:56:30;20.0;;;14.0;;
45382;SDS011;42455;51.660;5.824;2022-12-18T05:01:35;20.5;;;14.0;;
45382;SDS011;42455;51.660;5.824;2022-12-18T05:06:41;20.0;;;14.0;;
45382;SDS011;42455;51.660;5.824;2022-12-18T05:11:48;18.0;;;14.0;;
45382;SDS011;42455;51.660;5.824;2022-12-18T05:22:00;18.0;;;14.0;;
45382;SDS011;42455;51.660;5.824;2022-12-18T05:27:06;19.5;;;14.0;;
45382;SDS011;42455;51.660;5.824;2022-12-18T05:32:12;20.0;;;14.0;;
45382;SDS011;42455;51.660;5.824;2022-12-18T05:37:19;19.0;;;14.0;;
45382;SDS011;42455;51.660;5.824;2022-12-18T05:42:25;19.0;;;14.0;;
45382;SDS011;42455;51.660;5.824;2022-12-18T05:47:31;20.0;;;14.0;;
45382;SDS011;42455;51.660;5.824;2022-12-18T05:52:37;19.0;;;14.0;;
45382;SDS011;42455;51.660;5.824;2022-12-18T05:57:43;21.0;;;14.5;;
45382;SDS011;42455;51.660;5.824;2022-12-18T06:02:50;19.0;;;14.0;;
45382;SDS011;42455;51.660;5.824;2022-12-18T06:07:56;19.0;;;14.0;;
45382;SDS011;42455;51.660;5.824;2022-12-18T06:13:02;20.0;;;14.0;;
45382;SDS011;42455;51.660;5.824;2022-12-18T06:18:08;19.0;;;14.0;;
45382;SDS011;42455;51.660;5.824;2022-12-18T06:23:14;21.0;;;14.0;;
45382;SDS011;42455;51.660;5.824;2022-12-18T06:28:21;21.0;;;14.5;;
45382;SDS011;42455;51.660;5.824;2022-12-18T06:33:27;20.0;;;14.0;;
45382;SDS011;42455;51.660;5.824;2022-12-18T06:38:33;21.5;;;15.0;;
45382;SDS011;42455;51.660;5.824;2022-12-18T06:43:39;20.5;;;15.0;;
45382;SDS011;42455;51.660;5.824;2022-12-18T06:48:46;21.0;;;15.0;;
45382;SDS011;42455;51.660;5.824;2022-12-18T06:53:51;21.0;;;15.0;;
45382;SDS011;42455;51.660;5.824;2022-12-18T06:58:57;20.0;;;14.0;;
45382;SDS011;42455;51.660;5.824;2022-12-18T07:04:03;19.0;;;14.0;;
45382;SDS011;42455;51.660;5.824;2022-12-18T07:09:09;19.0;;;14.0;;
45382;SDS011;42455;51.660;5.824;2022-12-18T07:14:15;18.0;;;14.0;;
45382;SDS011;42455;51.660;5.824;2022-12-18T07:19:22;18.0;;;14.0;;
45382;SDS011;42455;51.660;5.824;2022-12-18T07:24:28;19.0;;;14.0;;
45382;SDS011;42455;51.660;5.824;2022-12-18T07:29:34;18.0;;;14.0;;
45382;SDS011;42455;51.660;5.824;2022-12-18T07:34:40;18.0;;;14.0;;
45382;SDS011;42455;51.660;5.824;2022-12-18T07:39:47;17.0;;;14.0;;
45382;SDS011;42455;51.660;5.824;2022-12-18T07:44:53;18.0;;;13.0;;
45382;SDS011;42455;51.660;5.824;2022-12-18T07:49:59;16.5;;;13.0;;
45382;SDS011;42455;51.660;5.824;2022-12-18T07:55:05;17.0;;;13.0;;
45382;SDS011;42455;51.660;5.824;2022-12-18T08:00:12;18.0;;;14.0;;
45382;SDS011;42455;51.660;5.824;2022-12-18T08:05:18;19.0;;;14.0;;
45382;SDS011;42455;51.660;5.824;2022-12-18T08:10:24;16.5;;;13.0;;
45382;SDS011;42455;51.660;5.824;2022-12-18T08:15:30;18.0;;;14.0;;
45382;SDS011;42455;51.660;5.824;2022-12-18T08:20:36;18.0;;;14.0;;
45382;SDS011;42455;51.660;5.824;2022-12-18T08:25:42;19.0;;;14.0;;
45382;SDS011;42455;51.660;5.824;2022-12-18T08:35:55;19.5;;;15.0;;
45382;SDS011;42455;51.660;5.824;2022-12-18T08:41:02;17.0;;;13.0;;
45382;SDS011;42455;51.660;5.824;2022-12-18T08:46:08;18.0;;;13.0;;
45382;SDS011;42455;51.660;5.824;2022-12-18T08:51:15;18.0;;;14.0;;
45382;SDS011;42455;51.660;5.824;2022-12-18T08:56:20;18.0;;;14.0;;
45382;SDS011;42455;51.660;5.824;2022-12-18T09:01:26;17.0;;;13.0;;
45382;SDS011;42455;51.660;5.824;2022-12-18T09:06:32;18.0;;;13.0;;
45382;SDS011;42455;51.660;5.824;2022-12-18T09:11:38;18.0;;;14.0;;
45382;SDS011;42455;51.660;5.824;2022-12-18T09:16:44;17.5;;;13.0;;
45382;SDS011;42455;51.660;5.824;2022-12-18T09:21:51;17.0;;;13.0;;
45382;SDS011;42455;51.660;5.824;2022-12-18T09:26:57;19.0;;;13.0;;
45382;SDS011;42455;51.660;5.824;2022-12-18T09:32:03;16.0;;;13.0;;
45382;SDS011;42455;51.660;5.824;2022-12-18T09:37:09;16.5;;;14.0;;
45382;SDS011;42455;51.660;5.824;2022-12-18T09:42:19;18.0;;;14.0;;
45382;SDS011;42455;51.660;5.824;2022-12-18T09:47:38;17.0;;;14.0;;
45382;SDS011;42455;51.660;5.824;2022-12-18T09:52:29;17.0;;;13.0;;
45382;SDS011;42455;51.660;5.824;2022-12-18T09:57:51;18.0;;;13.0;;
45382;SDS011;42455;51.660;5.824;2022-12-18T10:03:17;17.0;;;13.0;;
45382;SDS011;42455;51.660;5.824;2022-12-18T10:08:24;17.0;;;13.0;;
45382;SDS011;42455;51.660;5.824;2022-12-18T10:13:33;16.0;;;13.0;;
45382;SDS011;42455;51.660;5.824;2022-12-18T10:19:11;17.0;;;13.0;;
45382;SDS011;42455;51.660;5.824;2022-12-18T10:23:41;16.0;;;12.0;;
45382;SDS011;42455;51.660;5.824;2022-12-18T10:28:12;16.0;;;12.0;;
45382;SDS011;42455;51.660;5.824;2022-12-18T10:33:18;16.0;;;13.0;;
45382;SDS011;42455;51.660;5.824;2022-12-18T10:38:25;16.0;;;12.0;;
45382;SDS011;42455;51.660;5.824;2022-12-18T10:43:31;15.0;;;12.0;;
45382;SDS011;42455;51.660;5.824;2022-12-18T10:53:44;14.0;;;12.0;;
45382;SDS011;42455;51.660;5.824;2022-12-18T10:59:00;15.0;;;13.0;;
45382;SDS011;42455;51.660;5.824;2022-12-18T11:04:02;17.0;;;13.0;;
45382;SDS011;42455;51.660;5.824;2022-12-18T11:09:04;16.0;;;13.0;;
45382;SDS011;42455;51.660;5.824;2022-12-18T11:14:15;16.0;;;13.0;;
45382;SDS011;42455;51.660;5.824;2022-12-18T11:19:21;16.0;;;13.0;;
45382;SDS011;42455;51.660;5.824;2022-12-18T11:24:23;16.0;;;14.0;;
45382;SDS011;42455;51.660;5.824;2022-12-18T11:29:27;16.0;;;13.0;;
45382;SDS011;42455;51.660;5.824;2022-12-18T11:34:32;16.0;;;13.0;;
45382;SDS011;42455;51.660;5.824;2022-12-18T11:39:39;16.0;;;12.0;;
45382;SDS011;42455;51.660;5.824;2022-12-18T11:44:58;16.0;;;13.0;;
45382;SDS011;42455;51.660;5.824;2022-12-18T11:49:51;17.0;;;13.0;;
45382;SDS011;42455;51.660;5.824;2022-12-18T11:55:01;16.0;;;13.0;;
45382;SDS011;42455;51.660;5.824;2022-12-18T12:00:16;16.0;;;13.0;;
45382;SDS011;42455;51.660;5.824;2022-12-18T12:06:36;18.0;;;13.0;;
45382;SDS011;42455;51.660;5.824;2022-12-18T12:11:57;16.0;;;13.0;;
45382;SDS011;42455;51.660;5.824;2022-12-18T12:17:45;15.0;;;13.0;;
45382;SDS011;42455;51.660;5.824;2022-12-18T12:23:14;17.0;;;13.0;;
45382;SDS011;42455;51.660;5.824;2022-12-18T12:28:44;17.0;;;13.0;;
45382;SDS011;42455;51.660;5.824;2022-12-18T12:34:25;16.0;;;13.0;;
45382;SDS011;42455;51.660;5.824;2022-12-18T12:39:10;15.0;;;13.0;;
45382;SDS011;42455;51.660;5.824;2022-12-18T12:40:52;17.0;;;14.0;;
45382;SDS011;42455;51.660;5.824;2022-12-18T12:45:58;15.0;;;13.0;;
45382;SDS011;42455;51.660;5.824;2022-12-18T12:51:08;16.0;;;13.0;;
45382;SDS011;42455;51.660;5.824;2022-12-18T12:56:11;16.0;;;13.0;;
45382;SDS011;42455;51.660;5.824;2022-12-18T13:01:23;15.0;;;13.0;;
45382;SDS011;42455;51.660;5.824;2022-12-18T13:06:36;17.0;;;13.0;;
45382;SDS011;42455;51.660;5.824;2022-12-18T13:11:36;18.0;;;14.0;;
45382;SDS011;42455;51.660;5.824;2022-12-18T13:16:35;17.0;;;14.0;;
45382;SDS011;42455;51.660;5.824;2022-12-18T13:21:42;17.0;;;14.0;;
45382;SDS011;42455;51.660;5.824;2022-12-18T13:26:48;18.0;;;14.0;;
45382;SDS011;42455;51.660;5.824;2022-12-18T13:32:01;17.5;;;14.0;;
45382;SDS011;42455;51.660;5.824;2022-12-18T13:37:43;18.0;;;14.0;;
45382;SDS011;42455;51.660;5.824;2022-12-18T13:42:40;17.0;;;14.0;;
45382;SDS011;42455;51.660;5.824;2022-12-18T13:47:34;17.0;;;14.0;;
45382;SDS011;42455;51.660;5.824;2022-12-18T13:52:25;17.0;;;13.0;;
45382;SDS011;42455;51.660;5.824;2022-12-18T13:57:37;17.0;;;13.0;;
45382;SDS011;42455;51.660;5.824;2022-12-18T14:02:31;16.0;;;14.0;;
45382;SDS011;42455;51.660;5.824;2022-12-18T14:07:37;18.0;;;14.0;;
45382;SDS011;42455;51.660;5.824;2022-12-18T14:12:47;17.0;;;14.0;;
45382;SDS011;42455;51.660;5.824;2022-12-18T14:17:50;16.5;;;14.0;;
45382;SDS011;42455;51.660;5.824;2022-12-18T14:22:56;19.0;;;15.0;;
45382;SDS011;42455;51.660;5.824;2022-12-18T14:28:04;17.0;;;14.0;;
45382;SDS011;42455;51.660;5.824;2022-12-18T14:33:22;20.5;;;17.0;;
45382;SDS011;42455;51.660;5.824;2022-12-18T14:38:15;19.0;;;14.0;;
45382;SDS011;42455;51.660;5.824;2022-12-18T14:43:21;17.0;;;14.0;;
45382;SDS011;42455;51.660;5.824;2022-12-18T14:48:33;17.0;;;14.0;;
45382;SDS011;42455;51.660;5.824;2022-12-18T14:53:34;17.0;;;14.0;;
45382;SDS011;42455;51.660;5.824;2022-12-18T14:58:43;18.0;;;14.0;;
45382;SDS011;42455;51.660;5.824;2022-12-18T15:03:46;19.0;;;14.0;;
45382;SDS011;42455;51.660;5.824;2022-12-18T15:08:52;19.0;;;15.0;;
45382;SDS011;42455;51.660;5.824;2022-12-18T15:13:58;18.0;;;15.0;;
45382;SDS011;42455;51.660;5.824;2022-12-18T15:19:06;19.0;;;15.0;;
45382;SDS011;42455;51.660;5.824;2022-12-18T15:24:18;20.0;;;16.0;;
45382;SDS011;42455;51.660;5.824;2022-12-18T15:29:23;21.0;;;15.0;;
45382;SDS011;42455;51.660;5.824;2022-12-18T15:34:23;19.0;;;15.5;;
45382;SDS011;42455;51.660;5.824;2022-12-18T15:39:29;20.0;;;16.0;;
45382;SDS011;42455;51.660;5.824;2022-12-18T15:44:35;19.0;;;16.0;;
45382;SDS011;42455;51.660;5.824;2022-12-18T15:49:42;18.0;;;16.0;;
45382;SDS011;42455;51.660;5.824;2022-12-18T15:54:48;21.0;;;16.0;;
45382;SDS011;42455;51.660;5.824;2022-12-18T15:59:54;19.0;;;16.0;;
45382;SDS011;42455;51.660;5.824;2022-12-18T16:05:00;21.0;;;17.0;;
45382;SDS011;42455;51.660;5.824;2022-12-18T16:10:06;21.0;;;17.0;;
45382;SDS011;42455;51.660;5.824;2022-12-18T16:15:13;22.0;;;17.0;;
45382;SDS011;42455;51.660;5.824;2022-12-18T16:20:19;22.0;;;16.0;;
45382;SDS011;42455;51.660;5.824;2022-12-18T16:25:26;23.0;;;17.0;;
45382;SDS011;42455;51.660;5.824;2022-12-18T16:30:31;22.0;;;17.0;;
45382;SDS011;42455;51.660;5.824;2022-12-18T16:35:37;22.0;;;17.0;;
45382;SDS011;42455;51.660;5.824;2022-12-18T16:40:44;22.5;;;17.0;;
45382;SDS011;42455;51.660;5.824;2022-12-18T16:45:50;21.0;;;16.0;;
45382;SDS011;42455;51.660;5.824;2022-12-18T16:51:03;22.0;;;18.0;;
45382;SDS011;42455;51.660;5.824;2022-12-18T16:56:02;23.0;;;18.0;;
45382;SDS011;42455;51.660;5.824;2022-12-18T17:01:09;23.0;;;17.0;;
45382;SDS011;42455;51.660;5.824;2022-12-18T17:06:15;23.0;;;18.0;;
45382;SDS011;42455;51.660;5.824;2022-12-18T17:11:21;22.0;;;18.0;;
45382;SDS011;42455;51.660;5.824;2022-12-18T17:16:27;24.0;;;18.0;;
45382;SDS011;42455;51.660;5.824;2022-12-18T17:21:33;23.0;;;18.0;;
45382;SDS011;42455;51.660;5.824;2022-12-18T17:26:40;23.5;;;18.0;;
45382;SDS011;42455;51.660;5.824;2022-12-18T17:31:46;23.0;;;18.0;;
45382;SDS011;42455;51.660;5.824;2022-12-18T17:36:52;23.0;;;17.0;;
45382;SDS011;42455;51.660;5.824;2022-12-18T17:41:58;21.5;;;17.0;;
45382;SDS011;42455;51.660;5.824;2022-12-18T17:47:04;23.0;;;17.0;;
45382;SDS011;42455;51.660;5.824;2022-12-18T17:52:10;23.0;;;17.0;;
45382;SDS011;42455;51.660;5.824;2022-12-18T17:57:16;24.0;;;18.0;;
45382;SDS011;42455;51.660;5.824;2022-12-18T18:02:22;22.0;;;17.0;;
45382;SDS011;42455;51.660;5.824;2022-12-18T18:07:28;24.0;;;19.0;;
45382;SDS011;42455;51.660;5.824;2022-12-18T18:12:35;25.5;;;18.0;;
45382;SDS011;42455;51.660;5.824;2022-12-18T18:17:41;23.0;;;19.0;;
45382;SDS011;42455;51.660;5.824;2022-12-18T18:22:46;27.0;;;21.0;;
45382;SDS011;42455;51.660;5.824;2022-12-18T18:27:52;24.0;;;18.0;;
45382;SDS011;42455;51.660;5.824;2022-12-18T18:32:58;24.0;;;18.0;;
45382;SDS011;42455;51.660;5.824;2022-12-18T18:38:04;25.0;;;19.0;;
45382;SDS011;42455;51.660;5.824;2022-12-18T18:43:11;25.0;;;19.0;;
45382;SDS011;42455;51.660;5.824;2022-12-18T18:48:17;25.0;;;19.0;;
45382;SDS011;42455;51.660;5.824;2022-12-18T18:53:23;23.0;;;18.0;;
45382;SDS011;42455;51.660;5.824;2022-12-18T18:58:30;23.0;;;18.0;;
45382;SDS011;42455;51.660;5.824;2022-12-18T19:03:36;24.0;;;19.0;;
45382;SDS011;42455;51.660;5.824;2022-12-18T19:08:42;25.0;;;19.0;;
45382;SDS011;42455;51.660;5.824;2022-12-18T19:13:48;24.0;;;18.0;;
45382;SDS011;42455;51.660;5.824;2022-12-18T19:18:55;24.0;;;18.0;;
45382;SDS011;42455;51.660;5.824;2022-12-18T19:24:01;23.0;;;18.0;;
45382;SDS011;42455;51.660;5.824;2022-12-18T19:29:08;26.0;;;18.5;;
45382;SDS011;42455;51.660;5.824;2022-12-18T19:34:13;26.0;;;19.0;;
45382;SDS011;42455;51.660;5.824;2022-12-18T19:39:19;25.5;;;19.0;;
45382;SDS011;42455;51.660;5.824;2022-12-18T19:44:25;23.0;;;18.0;;
45382;SDS011;42455;51.660;5.824;2022-12-18T19:49:31;26.0;;;19.0;;
45382;SDS011;42455;51.660;5.824;2022-12-18T19:54:38;25.0;;;19.0;;
45382;SDS011;42455;51.660;5.824;2022-12-18T19:59:44;25.0;;;20.0;;
45382;SDS011;42455;51.660;5.824;2022-12-18T20:04:50;25.5;;;19.0;;
45382;SDS011;42455;51.660;5.824;2022-12-18T20:09:56;24.0;;;19.0;;
45382;SDS011;42455;51.660;5.824;2022-12-18T20:15:02;27.0;;;20.0;;
45382;SDS011;42455;51.660;5.824;2022-12-18T20:20:09;26.0;;;19.0;;
45382;SDS011;42455;51.660;5.824;2022-12-18T20:25:15;27.0;;;22.0;;
45382;SDS011;42455;51.660;5.824;2022-12-18T20:30:21;30.0;;;24.0;;
45382;SDS011;42455;51.660;5.824;2022-12-18T20:35:27;27.5;;;20.0;;
45382;SDS011;42455;51.660;5.824;2022-12-18T20:40:33;27.5;;;21.0;;
45382;SDS011;42455;51.660;5.824;2022-12-18T20:45:40;29.0;;;21.0;;
45382;SDS011;42455;51.660;5.824;2022-12-18T20:50:55;27.0;;;21.0;;
45382;SDS011;42455;51.660;5.824;2022-12-18T20:55:52;28.0;;;22.0;;
45382;SDS011;42455;51.660;5.824;2022-12-18T21:01:02;28.0;;;21.0;;
45382;SDS011;42455;51.660;5.824;2022-12-18T21:06:05;29.0;;;21.0;;
45382;SDS011;42455;51.660;5.824;2022-12-18T21:11:12;30.0;;;22.0;;
45382;SDS011;42455;51.660;5.824;2022-12-18T21:16:17;31.0;;;23.0;;
45382;SDS011;42455;51.660;5.824;2022-12-18T21:21:23;28.0;;;22.0;;
45382;SDS011;42455;51.660;5.824;2022-12-18T21:26:29;29.0;;;22.0;;
45382;SDS011;42455;51.660;5.824;2022-12-18T21:31:36;30.0;;;23.0;;
45382;SDS011;42455;51.660;5.824;2022-12-18T21:36:42;29.0;;;22.0;;
45382;SDS011;42455;51.660;5.824;2022-12-18T21:41:48;29.5;;;21.5;;
45382;SDS011;42455;51.660;5.824;2022-12-18T21:46:54;34.0;;;25.0;;
45382;SDS011;42455;51.660;5.824;2022-12-18T21:52:00;30.5;;;24.0;;
45382;SDS011;42455;51.660;5.824;2022-12-18T21:57:06;31.0;;;24.5;;
45382;SDS011;42455;51.660;5.824;2022-12-18T22:02:13;32.0;;;24.5;;
45382;SDS011;42455;51.660;5.824;2022-12-18T22:07:19;32.5;;;23.5;;
45382;SDS011;42455;51.660;5.824;2022-12-18T22:12:25;31.0;;;24.0;;
45382;SDS011;42455;51.660;5.824;2022-12-18T22:17:31;32.0;;;24.0;;
45382;SDS011;42455;51.660;5.824;2022-12-18T22:22:37;32.0;;;25.0;;
45382;SDS011;42455;51.660;5.824;2022-12-18T22:27:44;33.0;;;25.0;;
45382;SDS011;42455;51.660;5.824;2022-12-18T22:32:50;34.0;;;26.0;;
45382;SDS011;42455;51.660;5.824;2022-12-18T22:37:56;34.0;;;25.0;;
45382;SDS011;42455;51.660;5.824;2022-12-18T22:43:02;34.5;;;25.0;;
45382;SDS011;42455;51.660;5.824;2022-12-18T22:48:09;35.0;;;25.5;;
45382;SDS011;42455;51.660;5.824;2022-12-18T22:53:15;33.0;;;25.0;;
45382;SDS011;42455;51.660;5.824;2022-12-18T22:58:21;32.5;;;25.0;;
45382;SDS011;42455;51.660;5.824;2022-12-18T23:03:27;32.5;;;24.0;;
45382;SDS011;42455;51.660;5.824;2022-12-18T23:08:33;35.0;;;25.0;;
45382;SDS011;42455;51.660;5.824;2022-12-18T23:13:40;32.5;;;25.0;;
45382;SDS011;42455;51.660;5.824;2022-12-18T23:18:46;33.0;;;25.0;;
45382;SDS011;42455;51.660;5.824;2022-12-18T23:23:52;35.0;;;25.0;;
45382;SDS011;42455;51.660;5.824;2022-12-18T23:28:59;35.0;;;26.0;;
45382;SDS011;42455;51.660;5.824;2022-12-18T23:34:06;33.0;;;25.0;;
45382;SDS011;42455;51.660;5.824;2022-12-18T23:39:11;36.0;;;26.0;;
45382;SDS011;42455;51.660;5.824;2022-12-18T23:44:17;33.5;;;25.0;;
45382;SDS011;42455;51.660;5.824;2022-12-18T23:49:23;36.0;;;26.0;;
45382;SDS011;42455;51.660;5.824;2022-12-18T23:54:28;34.0;;;25.0;;
45382;SDS011;42455;51.660;5.824;2022-12-18T23:59:34;33.0;;;24.0;;
